createdAt,value
2023-05-09T00:00:35.465Z,1.75
2023-05-09T00:03:01.893Z,1.80
2023-05-09T00:05:28.281Z,1.75
2023-05-09T00:07:54.679Z,1.76
2023-05-09T00:10:21.072Z,1.75
2023-05-09T00:12:47.502Z,1.79
2023-05-09T00:15:14.168Z,1.57
2023-05-09T00:17:40.839Z,1.52
2023-05-09T00:20:07.218Z,1.63
2023-05-09T00:22:33.714Z,1.72
2023-05-09T00:25:00.154Z,1.62
2023-05-09T00:27:26.555Z,1.48
2023-05-09T00:29:52.922Z,1.50
2023-05-09T00:32:19.340Z,1.54
2023-05-09T00:34:45.723Z,1.79
2023-05-09T00:37:12.096Z,1.72
2023-05-09T00:39:38.491Z,1.59
2023-05-09T00:42:04.878Z,1.53
2023-05-09T00:44:31.263Z,1.63
2023-05-09T00:46:57.654Z,1.51
2023-05-09T00:49:24.045Z,1.33
2023-05-09T00:51:50.426Z,1.42
2023-05-09T00:54:16.776Z,1.40
2023-05-09T00:56:43.182Z,1.56
2023-05-09T00:59:09.542Z,1.50
2023-05-09T01:01:35.960Z,1.47
2023-05-09T01:04:02.386Z,1.61
2023-05-09T01:06:28.755Z,1.39
2023-05-09T01:08:55.161Z,1.58
2023-05-09T01:11:21.555Z,1.45
2023-05-09T01:13:47.943Z,1.36
2023-05-09T01:16:14.358Z,1.42
2023-05-09T01:18:40.749Z,1.51
2023-05-09T01:21:07.189Z,1.51
2023-05-09T01:23:33.632Z,1.69
2023-05-09T01:26:00.029Z,1.91
2023-05-09T01:28:26.422Z,2.14
2023-05-09T01:30:52.843Z,2.43
2023-05-09T01:33:19.222Z,2.31
2023-05-09T01:35:45.602Z,2.74
2023-05-09T01:38:11.977Z,2.86
2023-05-09T01:40:38.390Z,2.87
2023-05-09T01:43:04.814Z,2.96
2023-05-09T01:45:31.239Z,3.07
2023-05-09T01:47:57.680Z,3.38
2023-05-09T01:50:24.130Z,3.42
2023-05-09T01:52:50.565Z,3.25
2023-05-09T01:55:17.079Z,3.25
2023-05-09T01:57:43.517Z,3.33
2023-05-09T02:00:09.896Z,3.31
2023-05-09T02:02:36.379Z,3.13
2023-05-09T02:05:02.935Z,3.08
2023-05-09T02:07:29.321Z,3.37
2023-05-09T02:09:55.811Z,2.91
2023-05-09T02:12:22.254Z,3.08
2023-05-09T02:14:48.636Z,3.09
2023-05-09T02:17:15.013Z,2.89
2023-05-09T02:19:41.417Z,2.90
2023-05-09T02:22:07.808Z,3.05
2023-05-09T02:24:34.210Z,2.63
2023-05-09T02:27:00.604Z,2.79
2023-05-09T02:29:26.981Z,2.83
2023-05-09T02:31:53.418Z,2.98
2023-05-09T02:34:19.795Z,2.73
2023-05-09T02:36:46.204Z,2.68
2023-05-09T02:39:12.571Z,2.68
2023-05-09T02:41:38.953Z,2.57
2023-05-09T02:44:05.324Z,2.62
2023-05-09T02:46:31.832Z,2.62
2023-05-09T02:48:58.303Z,2.68
2023-05-09T02:51:24.686Z,2.44
2023-05-09T02:53:51.105Z,2.63
2023-05-09T02:56:17.566Z,2.63
2023-05-09T02:58:43.922Z,2.71
2023-05-09T03:01:10.349Z,2.66
2023-05-09T03:03:36.881Z,2.87
2023-05-09T03:06:03.348Z,2.98
2023-05-09T03:08:29.748Z,2.92
2023-05-09T03:10:56.130Z,3.11
2023-05-09T03:13:22.541Z,2.95
2023-05-09T03:15:49.124Z,3.21
2023-05-09T03:18:15.637Z,3.14
2023-05-09T03:20:42.035Z,3.09
2023-05-09T03:23:08.448Z,3.38
2023-05-09T03:25:34.879Z,2.84
2023-05-09T03:28:01.300Z,3.26
2023-05-09T03:30:27.700Z,3.34
2023-05-09T03:32:54.154Z,3.77
2023-05-09T03:35:20.584Z,4.01
2023-05-09T03:37:47.012Z,3.97
2023-05-09T03:40:13.470Z,3.55
2023-05-09T03:42:39.839Z,3.50
2023-05-09T03:45:06.332Z,3.48
2023-05-09T03:47:32.723Z,3.33
2023-05-09T03:49:59.135Z,3.21
2023-05-09T03:52:25.540Z,3.31
2023-05-09T03:54:51.910Z,3.40
2023-05-09T03:57:18.318Z,3.17
2023-05-09T03:59:44.828Z,3.37
2023-05-09T04:02:11.276Z,3.25
2023-05-09T04:04:37.640Z,3.53
2023-05-09T04:07:04.048Z,3.18
2023-05-09T04:09:30.449Z,3.31
2023-05-09T04:11:56.842Z,3.13
2023-05-09T04:14:23.231Z,3.40
2023-05-09T04:16:49.681Z,3.54
2023-05-09T04:19:16.305Z,3.40
2023-05-09T04:21:42.703Z,3.44
2023-05-09T04:24:09.152Z,3.54
2023-05-09T04:26:35.561Z,3.74
2023-05-09T04:29:01.969Z,4.11
2023-05-09T04:31:28.457Z,3.92
2023-05-09T04:33:54.871Z,4.15
2023-05-09T04:36:21.257Z,3.78
2023-05-09T04:38:47.641Z,4.04
2023-05-09T04:41:14.112Z,4.06
2023-05-09T04:43:40.499Z,4.01
2023-05-09T04:46:06.907Z,4.62
2023-05-09T04:48:33.342Z,5.09
2023-05-09T04:50:59.714Z,5.58
2023-05-09T04:53:26.257Z,4.93
2023-05-09T04:55:52.646Z,4.91
2023-05-09T04:58:19.060Z,5.16
2023-05-09T05:00:45.448Z,5.45
2023-05-09T05:03:11.846Z,5.56
2023-05-09T05:05:38.448Z,5.31
2023-05-09T05:08:04.915Z,5.89
2023-05-09T05:10:31.377Z,5.64
2023-05-09T05:12:57.787Z,6.13
2023-05-09T05:15:24.268Z,6.34
2023-05-09T05:17:50.935Z,4.91
2023-05-09T05:20:17.423Z,4.57
2023-05-09T05:22:43.815Z,5.06
2023-05-09T05:25:10.191Z,4.63
2023-05-09T05:27:36.636Z,4.36
2023-05-09T05:30:03.069Z,3.84
2023-05-09T05:32:29.528Z,3.38
2023-05-09T05:34:55.910Z,3.68
2023-05-09T05:37:22.313Z,3.44
2023-05-09T05:39:48.702Z,3.37
2023-05-09T05:42:15.126Z,3.30
2023-05-09T05:44:41.764Z,3.50
2023-05-09T05:47:08.192Z,4.43
2023-05-09T05:49:34.587Z,4.28
2023-05-09T05:52:02.655Z,4.16
2023-05-09T05:54:29.094Z,4.63
2023-05-09T05:56:55.468Z,4.40
2023-05-09T05:59:21.859Z,4.37
2023-05-09T06:01:48.282Z,6.90
2023-05-09T06:04:14.796Z,4.28
2023-05-09T06:06:41.217Z,4.56
2023-05-09T06:09:07.623Z,4.73
2023-05-09T06:11:34.005Z,4.66
2023-05-09T06:14:00.419Z,4.53
2023-05-09T06:16:26.905Z,4.81
2023-05-09T06:18:55.684Z,6.27
2023-05-09T06:21:22.420Z,5.53
2023-05-09T06:24:05.919Z,6.01
2023-05-09T06:26:34.738Z,6.16
2023-05-09T06:29:01.250Z,5.93
2023-05-09T06:31:27.733Z,5.50
2023-05-09T06:33:54.180Z,5.86
2023-05-09T06:36:20.617Z,6.45
2023-05-09T06:38:47.249Z,6.87
2023-05-09T06:41:13.662Z,6.85
2023-05-09T06:43:40.122Z,6.81
2023-05-09T06:46:06.549Z,6.87
2023-05-09T06:48:33.013Z,6.77
2023-05-09T06:50:59.673Z,6.43
2023-05-09T06:53:26.105Z,6.63
2023-05-09T06:55:52.509Z,5.52
2023-05-09T06:58:18.939Z,5.67
2023-05-09T07:00:45.352Z,5.02
2023-05-09T07:03:11.849Z,4.99
2023-05-09T07:05:38.407Z,5.17
2023-05-09T07:08:04.804Z,4.65
2023-05-09T07:10:31.522Z,4.59
2023-05-09T07:12:58.020Z,4.89
2023-05-09T07:15:39.752Z,5.13
2023-05-09T07:18:08.164Z,5.47
2023-05-09T07:20:34.693Z,5.83
2023-05-09T07:23:01.232Z,6.35
2023-05-09T07:25:27.681Z,6.28
2023-05-09T07:27:54.092Z,5.62
2023-05-09T07:30:20.566Z,5.60
2023-05-09T07:32:47.071Z,6.05
2023-05-09T07:35:13.731Z,6.94
2023-05-09T07:37:40.411Z,6.48
2023-05-09T07:40:06.851Z,7.07
2023-05-09T07:42:33.283Z,6.40
2023-05-09T07:44:59.715Z,6.04
2023-05-09T07:47:26.171Z,5.90
2023-05-09T07:49:52.606Z,5.25
2023-05-09T07:52:19.182Z,5.16
2023-05-09T07:54:45.631Z,5.38
2023-05-09T07:57:12.011Z,5.38
2023-05-09T07:59:38.431Z,6.18
2023-05-09T08:02:04.938Z,4.95
2023-05-09T08:04:31.395Z,5.19
2023-05-09T08:06:57.827Z,4.36
2023-05-09T08:09:24.325Z,3.81
2023-05-09T08:11:50.794Z,3.82
2023-05-09T08:14:17.250Z,4.64
2023-05-09T08:16:43.656Z,4.87
2023-05-09T08:19:10.056Z,4.39
2023-05-09T08:21:36.448Z,4.27
2023-05-09T08:24:05.281Z,3.36
2023-05-09T08:26:31.674Z,3.01
2023-05-09T08:28:58.143Z,3.37
2023-05-09T08:31:24.559Z,2.35
2023-05-09T08:33:50.978Z,2.55
2023-05-09T08:36:17.482Z,2.97
2023-05-09T08:38:44.070Z,2.61
2023-05-09T08:41:10.482Z,3.51
2023-05-09T08:43:36.884Z,3.04
2023-05-09T08:46:03.289Z,3.13
2023-05-09T08:48:29.716Z,2.70
2023-05-09T08:50:56.161Z,2.90
2023-05-09T08:53:22.630Z,2.41
2023-05-09T08:55:49.024Z,2.57
2023-05-09T08:58:15.453Z,2.63
2023-05-09T09:00:41.826Z,2.60
2023-05-09T09:03:08.295Z,2.41
2023-05-09T09:08:06.255Z,2.86
2023-05-09T09:10:32.641Z,2.54
2023-05-09T09:12:59.197Z,2.69
2023-05-09T09:15:25.622Z,3.34
2023-05-09T09:17:52.046Z,2.68
2023-05-09T09:20:18.450Z,2.81
2023-05-09T09:22:44.893Z,3.33
2023-05-09T09:25:11.420Z,5.03
2023-05-09T09:27:37.815Z,5.63
2023-05-09T09:30:04.258Z,5.52
2023-05-09T09:32:30.680Z,5.24
2023-05-09T09:34:57.193Z,3.39
2023-05-09T09:37:23.603Z,2.45
2023-05-09T09:39:49.973Z,2.95
2023-05-09T09:42:16.449Z,2.67
2023-05-09T09:44:42.838Z,2.48
2023-05-09T09:47:09.200Z,2.43
2023-05-09T09:49:35.612Z,2.20
2023-05-09T09:52:02.060Z,2.26
2023-05-09T09:54:28.528Z,2.62
2023-05-09T09:56:55.190Z,3.46
2023-05-09T09:59:21.788Z,5.12
2023-05-09T10:01:48.424Z,5.11
2023-05-09T10:04:15.049Z,5.01
2023-05-09T10:06:41.493Z,4.77
2023-05-09T10:09:07.892Z,4.04
2023-05-09T10:11:34.325Z,2.64
2023-05-09T10:14:00.755Z,2.38
2023-05-09T10:16:40.198Z,2.49
2023-05-09T10:19:10.465Z,2.07
2023-05-09T10:21:37.979Z,2.18
2023-05-09T10:24:04.681Z,2.60
2023-05-09T10:26:31.066Z,2.58
2023-05-09T10:28:57.496Z,2.06
2023-05-09T10:31:23.933Z,2.49
2023-05-09T10:33:50.437Z,2.11
2023-05-09T10:36:16.923Z,2.28
2023-05-09T10:38:43.426Z,2.45
2023-05-09T10:41:12.654Z,2.31
2023-05-09T10:43:39.087Z,2.80
2023-05-09T10:46:05.556Z,2.73
2023-05-09T10:48:32.066Z,2.27
2023-05-09T10:50:58.633Z,2.26
2023-05-09T10:53:25.025Z,2.30
2023-05-09T10:55:51.557Z,2.57
2023-05-09T10:58:17.987Z,2.57
2023-05-09T11:00:44.433Z,2.28
2023-05-09T11:03:11.011Z,2.46
2023-05-09T11:05:37.497Z,2.25
2023-05-09T11:08:03.886Z,2.08
2023-05-09T11:10:30.333Z,2.11
2023-05-09T11:12:58.037Z,2.34
2023-05-09T11:15:24.742Z,2.15
2023-05-09T11:17:51.377Z,2.15
2023-05-09T11:20:17.802Z,2.27
2023-05-09T11:22:44.524Z,2.23
2023-05-09T11:25:10.996Z,2.01
2023-05-09T11:27:37.422Z,1.63
2023-05-09T11:30:03.858Z,2.04
2023-05-09T11:32:30.254Z,2.25
2023-05-09T11:34:56.650Z,2.29
2023-05-09T11:37:23.052Z,2.18
2023-05-09T11:39:49.514Z,2.18
2023-05-09T11:42:15.921Z,2.15
2023-05-09T11:44:42.420Z,2.10
2023-05-09T11:47:08.789Z,2.15
2023-05-09T11:49:35.219Z,2.18
2023-05-09T11:52:01.677Z,2.33
2023-05-09T11:54:28.059Z,3.02
2023-05-09T11:56:54.728Z,2.32
2023-05-09T11:59:21.215Z,2.42
2023-05-09T12:01:49.808Z,2.12
2023-05-09T12:04:16.364Z,2.13
2023-05-09T12:06:43.794Z,2.53
2023-05-09T12:09:11.475Z,2.48
2023-05-09T12:11:37.859Z,6.97
2023-05-09T12:14:04.266Z,17.95
2023-05-09T12:16:30.733Z,7.20
2023-05-09T12:18:57.252Z,4.12
2023-05-09T12:21:23.679Z,2.24
2023-05-09T12:23:51.727Z,2.57
2023-05-09T12:26:19.698Z,2.54
2023-05-09T12:28:46.308Z,2.18
2023-05-09T12:31:12.813Z,2.37
2023-05-09T12:33:39.286Z,2.01
2023-05-09T12:36:05.810Z,2.22
2023-05-09T12:38:32.228Z,2.29
2023-05-09T12:40:58.836Z,1.99
2023-05-09T12:43:25.234Z,2.34
2023-05-09T12:45:51.848Z,2.36
2023-05-09T12:48:18.241Z,2.35
2023-05-09T12:50:44.856Z,2.14
2023-05-09T12:53:11.294Z,2.14
2023-05-09T12:55:38.000Z,2.35
2023-05-09T12:58:04.415Z,2.17
2023-05-09T13:00:30.934Z,2.07
2023-05-09T13:02:57.478Z,1.81
2023-05-09T13:05:24.091Z,1.94
2023-05-09T13:07:50.535Z,1.91
2023-05-09T13:10:16.957Z,1.57
2023-05-09T13:12:43.406Z,1.69
2023-05-09T13:15:09.862Z,1.83
2023-05-09T13:17:36.455Z,1.90
2023-05-09T13:20:02.835Z,1.93
2023-05-09T13:22:29.254Z,1.96
2023-05-09T13:24:55.691Z,1.82
2023-05-09T13:27:22.474Z,1.79
2023-05-09T13:29:49.003Z,8.80
2023-05-09T13:32:15.610Z,2.83
2023-05-09T13:34:43.951Z,1.79
2023-05-09T13:37:10.431Z,1.82
2023-05-09T13:39:36.904Z,1.98
2023-05-09T13:42:03.485Z,2.02
2023-05-09T13:44:30.160Z,2.08
2023-05-09T13:46:56.555Z,1.69
2023-05-09T13:49:22.953Z,2.77
2023-05-09T13:51:49.419Z,1.84
2023-05-09T13:54:15.830Z,1.70
2023-05-09T13:56:42.277Z,2.05
2023-05-09T13:59:08.977Z,2.46
2023-05-09T14:01:35.378Z,2.49
2023-05-09T14:04:02.040Z,2.08
2023-05-09T14:06:28.536Z,2.16
2023-05-09T14:08:54.926Z,2.13
2023-05-09T14:11:21.304Z,1.99
2023-05-09T14:13:47.790Z,2.38
2023-05-09T14:16:14.273Z,2.20
2023-05-09T14:18:40.692Z,2.96
2023-05-09T14:21:07.061Z,2.29
2023-05-09T14:23:33.450Z,2.33
2023-05-09T14:25:59.978Z,2.05
2023-05-09T14:28:26.392Z,2.35
2023-05-09T14:30:52.772Z,2.19
2023-05-09T14:33:19.180Z,2.10
2023-05-09T14:35:45.629Z,2.33
2023-05-09T14:38:12.037Z,2.49
2023-05-09T14:40:38.699Z,2.38
2023-05-09T14:43:05.121Z,2.74
2023-05-09T14:45:31.531Z,2.84
2023-05-09T14:47:57.977Z,11.42
2023-05-09T14:50:24.463Z,14.76
2023-05-09T14:52:50.980Z,6.51
2023-05-09T14:55:17.401Z,3.24
2023-05-09T14:57:43.977Z,2.77
2023-05-09T15:00:20.267Z,2.63
2023-05-09T15:02:48.043Z,3.23
2023-05-09T15:05:14.746Z,2.86
2023-05-09T15:07:41.570Z,2.72
2023-05-09T15:10:08.164Z,5.54
2023-05-09T15:12:34.683Z,9.27
2023-05-09T15:15:01.186Z,3.73
2023-05-09T15:17:27.591Z,2.89
2023-05-09T15:19:54.049Z,2.36
2023-05-09T15:22:20.565Z,2.57
2023-05-09T15:24:48.207Z,2.96
2023-05-09T15:27:14.623Z,2.76
2023-05-09T15:29:41.155Z,2.51
2023-05-09T15:32:07.551Z,3.26
2023-05-09T15:34:34.027Z,5.21
2023-05-09T15:37:00.402Z,3.69
2023-05-09T15:39:26.836Z,2.83
2023-05-09T15:41:53.420Z,2.69
2023-05-09T15:44:19.833Z,2.96
2023-05-09T15:46:46.246Z,3.00
2023-05-09T15:49:12.707Z,1.98
2023-05-09T15:51:39.100Z,2.14
2023-05-09T15:54:05.710Z,2.07
2023-05-09T15:56:32.115Z,2.11
2023-05-09T15:58:58.529Z,2.13
2023-05-09T16:01:24.991Z,1.83
2023-05-09T16:03:51.448Z,1.85
2023-05-09T16:06:18.004Z,1.73
2023-05-09T16:08:44.413Z,1.64
2023-05-09T16:11:10.902Z,2.40
2023-05-09T16:13:37.596Z,1.89
2023-05-09T16:16:04.239Z,2.72
2023-05-09T16:18:30.670Z,2.28
2023-05-09T16:20:57.059Z,2.73
2023-05-09T16:23:23.490Z,2.90
2023-05-09T16:25:49.999Z,1.93
2023-05-09T16:28:16.381Z,1.89
2023-05-09T16:30:42.989Z,1.69
2023-05-09T16:33:09.489Z,2.27
2023-05-09T16:35:39.440Z,2.22
2023-05-09T16:38:05.965Z,1.78
2023-05-09T16:40:32.391Z,1.86
2023-05-09T16:42:58.869Z,1.56
2023-05-09T16:45:25.281Z,1.68
2023-05-09T16:47:51.697Z,1.46
2023-05-09T16:50:18.481Z,1.37
2023-05-09T16:52:44.909Z,6.46
2023-05-09T16:55:11.322Z,3.67
2023-05-09T16:57:37.756Z,2.75
2023-05-09T17:00:04.237Z,2.28
2023-05-09T17:02:33.554Z,2.25
2023-05-09T17:05:00.179Z,1.42
2023-05-09T17:07:26.672Z,1.75
2023-05-09T17:09:53.130Z,1.37
2023-05-09T17:12:19.538Z,1.34
2023-05-09T17:14:46.182Z,1.07
2023-05-09T17:17:12.629Z,1.06
2023-05-09T17:19:39.028Z,0.91
2023-05-09T17:22:05.601Z,0.84
2023-05-09T17:24:32.010Z,0.79
2023-05-09T17:26:58.429Z,1.00
2023-05-09T17:29:24.958Z,0.87
2023-05-09T17:31:51.521Z,1.20
2023-05-09T17:34:18.005Z,1.45
2023-05-09T17:36:44.381Z,24.27
2023-05-09T17:39:11.368Z,5.58
2023-05-09T17:41:37.802Z,2.88
2023-05-09T17:44:04.315Z,2.19
2023-05-09T17:46:30.784Z,1.65
2023-05-09T17:48:57.214Z,1.10
2023-05-09T17:51:23.742Z,1.69
2023-05-09T17:53:50.134Z,8.29
2023-05-09T17:56:16.512Z,5.68
2023-05-09T17:58:42.939Z,3.46
2023-05-09T18:01:09.360Z,2.72
2023-05-09T18:03:35.878Z,1.76
2023-05-09T18:06:02.488Z,1.30
2023-05-09T18:08:28.913Z,1.52
2023-05-09T18:10:55.335Z,1.71
2023-05-09T18:13:21.831Z,1.54
2023-05-09T18:15:48.295Z,1.29
2023-05-09T18:18:15.033Z,1.28
2023-05-09T18:20:41.561Z,1.17
2023-05-09T18:23:08.053Z,1.75
2023-05-09T18:25:34.496Z,1.85
2023-05-09T18:28:01.044Z,1.63
2023-05-09T18:30:27.511Z,1.37
2023-05-09T18:32:53.930Z,1.39
2023-05-09T18:35:20.443Z,1.15
2023-05-09T18:37:46.859Z,1.08
2023-05-09T18:40:13.369Z,1.52
2023-05-09T18:42:39.901Z,1.29
2023-05-09T18:45:06.536Z,1.31
2023-05-09T18:47:33.091Z,1.26
2023-05-09T18:50:02.365Z,1.64
2023-05-09T18:52:29.191Z,2.41
2023-05-09T18:54:55.583Z,1.56
2023-05-09T18:57:22.029Z,1.39
2023-05-09T18:59:48.461Z,1.24
2023-05-09T19:02:14.881Z,1.50
2023-05-09T19:04:41.358Z,1.09
2023-05-09T19:07:07.867Z,1.27
2023-05-09T19:09:34.312Z,1.60
2023-05-09T19:12:00.737Z,1.68
2023-05-09T19:14:27.192Z,1.08
2023-05-09T19:16:53.598Z,0.92
2023-05-09T19:19:20.109Z,1.37
2023-05-09T19:21:48.024Z,1.27
2023-05-09T19:24:16.048Z,1.11
2023-05-09T19:26:42.473Z,1.16
2023-05-09T19:29:08.906Z,1.85
2023-05-09T19:31:35.344Z,1.36
2023-05-09T19:34:01.785Z,1.18
2023-05-09T19:36:28.312Z,1.07
2023-05-09T19:38:54.745Z,1.65
2023-05-09T19:41:21.176Z,1.69
2023-05-09T19:43:48.036Z,1.87
2023-05-09T19:46:14.513Z,1.35
2023-05-09T19:48:40.945Z,1.23
2023-05-09T19:51:07.444Z,2.28
2023-05-09T19:53:34.021Z,1.36
2023-05-09T19:56:00.456Z,1.45
2023-05-09T19:58:26.950Z,1.63
2023-05-09T20:00:53.375Z,2.01
2023-05-09T20:03:19.895Z,2.14
2023-05-09T20:05:46.436Z,1.91
2023-05-09T20:08:12.877Z,1.60
2023-05-09T20:10:39.317Z,1.36
2023-05-09T20:13:05.773Z,1.64
2023-05-09T20:15:32.191Z,1.79
2023-05-09T20:17:58.684Z,1.48
2023-05-09T20:20:25.201Z,1.62
2023-05-09T20:22:51.804Z,1.86
2023-05-09T20:25:18.253Z,1.56
2023-05-09T20:27:44.708Z,1.73
2023-05-09T20:30:11.322Z,1.81
2023-05-09T20:32:37.798Z,1.72
2023-05-09T20:35:06.415Z,1.59
2023-05-09T20:37:32.800Z,1.28
2023-05-09T20:39:59.248Z,1.36
2023-05-09T20:42:25.639Z,1.19
2023-05-09T20:44:52.066Z,1.46
2023-05-09T20:47:18.475Z,1.42
2023-05-09T20:49:45.010Z,1.42
2023-05-09T20:52:11.650Z,1.58
2023-05-09T20:54:38.118Z,1.64
2023-05-09T20:57:04.509Z,1.36
2023-05-09T20:59:30.908Z,1.33
2023-05-09T21:01:57.355Z,1.60
2023-05-09T21:04:23.765Z,1.19
2023-05-09T21:06:50.360Z,1.31
2023-05-09T21:09:16.733Z,1.34
2023-05-09T21:11:43.909Z,1.39
2023-05-09T21:14:10.411Z,1.30
2023-05-09T21:16:36.840Z,1.30
2023-05-09T21:19:03.221Z,1.30
2023-05-09T21:21:29.659Z,1.19
2023-05-09T21:23:56.048Z,1.19
2023-05-09T21:26:22.432Z,1.04
2023-05-09T21:28:48.971Z,1.11
2023-05-09T21:31:15.369Z,1.00
2023-05-09T21:33:41.790Z,1.08
2023-05-09T21:36:08.258Z,1.01
2023-05-09T21:38:34.686Z,1.18
2023-05-09T21:41:01.111Z,1.29
2023-05-09T21:43:27.615Z,1.80
2023-05-09T21:45:54.027Z,1.21
2023-05-09T21:48:22.810Z,1.15
2023-05-09T21:50:49.245Z,1.33
2023-05-09T21:53:15.694Z,0.98
2023-05-09T21:55:42.157Z,1.13
2023-05-09T21:58:08.872Z,0.89
2023-05-09T22:00:35.375Z,0.77
2023-05-09T22:03:01.846Z,0.70
2023-05-09T22:05:28.327Z,1.37
2023-05-09T22:07:54.813Z,0.77
2023-05-09T22:10:21.312Z,0.74
2023-05-09T22:12:47.822Z,0.78
2023-05-09T22:15:14.323Z,0.70
2023-05-09T22:17:40.864Z,1.17
2023-05-09T22:20:07.268Z,1.59
2023-05-09T22:22:33.782Z,1.34
2023-05-09T22:25:00.271Z,1.63
2023-05-09T22:27:26.689Z,1.29
2023-05-09T22:29:53.084Z,1.22
2023-05-09T22:32:19.514Z,1.08
2023-05-09T22:34:45.888Z,0.86
2023-05-09T22:37:12.279Z,0.94
2023-05-09T22:39:38.691Z,1.05
2023-05-09T22:42:05.132Z,1.02
2023-05-09T22:44:31.536Z,0.88
2023-05-09T22:46:58.010Z,0.99
2023-05-09T22:49:24.470Z,0.98
2023-05-09T22:51:50.878Z,1.13
2023-05-09T22:54:17.477Z,1.13
2023-05-09T22:56:43.865Z,0.75
2023-05-09T22:59:10.278Z,0.82
2023-05-09T23:01:36.732Z,0.84
2023-05-09T23:04:03.163Z,0.83
2023-05-09T23:06:29.559Z,0.78
2023-05-09T23:08:55.926Z,0.77
2023-05-09T23:11:22.326Z,0.79
2023-05-09T23:13:48.721Z,0.83
2023-05-09T23:16:15.216Z,1.49
2023-05-09T23:18:41.750Z,1.06
2023-05-09T23:21:08.288Z,1.21
2023-05-09T23:23:34.649Z,0.72
2023-05-09T23:26:01.034Z,1.04
2023-05-09T23:28:27.468Z,1.19
2023-05-09T23:30:53.935Z,1.10
2023-05-09T23:33:20.445Z,0.87
2023-05-09T23:35:46.877Z,0.72
2023-05-09T23:38:13.249Z,0.76
2023-05-09T23:40:39.765Z,0.77
2023-05-09T23:43:06.197Z,0.66
2023-05-09T23:45:32.577Z,0.74
2023-05-09T23:47:58.978Z,0.68
2023-05-09T23:50:25.376Z,0.63
2023-05-09T23:52:51.754Z,0.81
2023-05-09T23:55:18.163Z,0.90
2023-05-09T23:57:44.543Z,0.69
